createdAt,value
2023-04-20T00:01:10.828Z,52.24
2023-04-20T00:03:39.088Z,53.07
2023-04-20T00:06:05.935Z,53.49
2023-04-20T00:08:32.636Z,54.56
2023-04-20T00:10:59.297Z,54.94
2023-04-20T00:13:26.027Z,55.38
2023-04-20T00:15:52.693Z,57.00
2023-04-20T00:18:19.395Z,57.04
2023-04-20T00:20:47.400Z,57.40
2023-04-20T00:23:14.078Z,58.13
2023-04-20T00:25:40.772Z,59.32
2023-04-20T00:28:07.521Z,59.38
2023-04-20T00:30:34.295Z,60.29
2023-04-20T00:33:01.038Z,60.36
2023-04-20T00:35:27.724Z,60.84
2023-04-20T00:37:55.759Z,61.52
2023-04-20T00:40:22.385Z,62.24
2023-04-20T00:42:48.990Z,61.75
2023-04-20T00:45:15.704Z,62.88
2023-04-20T00:47:42.369Z,64.83
2023-04-20T00:50:10.591Z,64.54
2023-04-20T00:52:37.278Z,65.06
2023-04-20T00:55:06.368Z,65.99
2023-04-20T00:57:36.277Z,65.79
2023-04-20T01:00:03.781Z,66.44
2023-04-20T01:02:30.673Z,66.74
2023-04-20T01:04:57.566Z,67.00
2023-04-20T01:07:24.287Z,68.56
2023-04-20T01:09:50.914Z,68.52
2023-04-20T01:12:18.983Z,67.77
2023-04-20T01:14:45.688Z,67.61
2023-04-20T01:17:12.335Z,67.75
2023-04-20T01:19:39.073Z,70.41
2023-04-20T01:22:05.803Z,69.29
2023-04-20T01:24:33.955Z,68.77
2023-04-20T01:27:00.637Z,68.21
2023-04-20T01:29:27.548Z,68.83
2023-04-20T01:31:54.259Z,68.43
2023-04-20T01:34:20.950Z,68.67
2023-04-20T01:36:47.559Z,69.64
2023-04-20T01:39:14.277Z,71.36
2023-04-20T01:41:42.557Z,71.36
2023-04-20T01:44:09.230Z,71.18
2023-04-20T01:46:37.516Z,71.26
2023-04-20T01:49:04.239Z,71.87
2023-04-20T01:51:30.841Z,72.58
2023-04-20T01:53:57.425Z,73.05
2023-04-20T01:56:24.169Z,73.73
2023-04-20T01:58:52.157Z,73.88
2023-04-20T02:01:19.874Z,74.58
2023-04-20T02:03:46.851Z,74.90
2023-04-20T02:06:13.594Z,75.09
2023-04-20T02:08:40.292Z,75.24
2023-04-20T02:11:06.949Z,75.11
2023-04-20T02:13:33.654Z,75.70
2023-04-20T02:16:01.669Z,75.65
2023-04-20T02:18:28.334Z,76.02
2023-04-20T02:20:54.946Z,75.63
2023-04-20T02:23:21.594Z,75.81
2023-04-20T02:25:48.272Z,76.25
2023-04-20T02:28:14.880Z,77.90
2023-04-20T02:30:41.633Z,79.21
2023-04-20T02:33:09.897Z,79.37
2023-04-20T02:35:36.556Z,78.99
2023-04-20T02:38:03.257Z,78.97
2023-04-20T02:40:30.060Z,79.77
2023-04-20T02:42:56.691Z,79.37
2023-04-20T02:45:23.338Z,79.71
2023-04-20T02:47:50.023Z,79.66
2023-04-20T02:50:18.045Z,79.95
2023-04-20T02:52:44.693Z,80.08
2023-04-20T02:55:11.350Z,80.65
2023-04-20T02:57:37.969Z,81.10
2023-04-20T03:00:05.613Z,81.52
2023-04-20T03:02:32.393Z,80.83
2023-04-20T03:04:59.267Z,80.59
2023-04-20T03:07:27.325Z,82.02
2023-04-20T03:09:53.993Z,83.00
2023-04-20T03:12:20.658Z,81.34
2023-04-20T03:14:47.233Z,80.93
2023-04-20T03:17:14.058Z,80.77
2023-04-20T03:19:40.712Z,80.75
2023-04-20T03:22:08.397Z,80.36
2023-04-20T03:24:36.411Z,80.98
2023-04-20T03:27:03.072Z,80.19
2023-04-20T03:29:29.710Z,80.08
2023-04-20T03:31:56.364Z,79.73
2023-04-20T03:34:22.964Z,80.01
2023-04-20T03:36:49.560Z,80.09
2023-04-20T03:39:16.362Z,80.21
2023-04-20T03:41:44.535Z,80.57
2023-04-20T03:44:11.176Z,80.93
2023-04-20T03:46:37.793Z,81.44
2023-04-20T03:49:04.441Z,81.99
2023-04-20T03:51:31.090Z,83.34
2023-04-20T03:53:57.725Z,83.27
2023-04-20T03:56:24.472Z,82.84
2023-04-20T03:58:52.582Z,83.12
2023-04-20T04:01:19.206Z,83.28
2023-04-20T04:03:46.157Z,82.12
2023-04-20T04:06:12.940Z,82.17
2023-04-20T04:08:39.518Z,83.13
2023-04-20T04:11:06.205Z,83.89
2023-04-20T04:13:34.624Z,83.55
2023-04-20T04:16:03.083Z,83.62
2023-04-20T04:18:31.035Z,82.98
2023-04-20T04:20:57.799Z,81.59
2023-04-20T04:23:24.583Z,80.77
2023-04-20T04:25:51.263Z,81.50
2023-04-20T04:28:17.928Z,80.41
2023-04-20T04:30:44.570Z,81.29
2023-04-20T04:33:12.579Z,81.83
2023-04-20T04:35:39.260Z,81.63
2023-04-20T04:38:06.026Z,81.93
2023-04-20T04:40:32.700Z,80.68
2023-04-20T04:42:59.370Z,81.45
2023-04-20T04:45:26.171Z,81.37
2023-04-20T04:47:53.194Z,81.47
2023-04-20T04:50:22.342Z,82.50
2023-04-20T04:52:49.053Z,83.95
2023-04-20T04:55:16.556Z,84.16
2023-04-20T04:57:43.424Z,85.71
2023-04-20T05:00:11.074Z,88.69
2023-04-20T05:02:37.962Z,88.91
2023-04-20T05:05:06.983Z,87.99
2023-04-20T05:07:36.178Z,86.38
2023-04-20T05:10:02.921Z,84.89
2023-04-20T05:12:29.624Z,83.17
2023-04-20T05:14:56.239Z,82.32
2023-04-20T05:17:22.877Z,80.51
2023-04-20T05:19:49.551Z,80.01
2023-04-20T05:22:16.198Z,78.75
2023-04-20T05:24:44.222Z,77.28
2023-04-20T05:27:11.126Z,75.34
2023-04-20T05:29:37.811Z,74.72
2023-04-20T05:32:04.886Z,74.12
2023-04-20T05:34:31.688Z,73.16
2023-04-20T05:36:58.952Z,71.49
2023-04-20T05:39:25.635Z,71.02
2023-04-20T05:41:53.673Z,69.48
2023-04-20T05:44:20.319Z,68.08
2023-04-20T05:46:46.910Z,66.87
2023-04-20T05:49:13.558Z,65.10
2023-04-20T05:51:40.155Z,64.15
2023-04-20T05:54:06.865Z,63.41
2023-04-20T05:56:33.514Z,62.48
2023-04-20T05:59:01.939Z,61.56
2023-04-20T06:01:28.552Z,61.14
2023-04-20T06:03:55.533Z,60.58
2023-04-20T06:06:22.281Z,60.46
2023-04-20T06:08:49.056Z,59.63
2023-04-20T06:11:15.670Z,59.51
2023-04-20T06:13:42.320Z,58.97
2023-04-20T06:16:10.389Z,58.03
2023-04-20T06:18:37.229Z,57.77
2023-04-20T06:21:04.263Z,57.39
2023-04-20T06:23:30.909Z,57.33
2023-04-20T06:25:57.550Z,56.64
2023-04-20T06:28:24.204Z,56.88
2023-04-20T06:30:50.829Z,56.92
2023-04-20T06:33:19.104Z,57.21
2023-04-20T06:35:45.783Z,56.23
2023-04-20T06:38:12.458Z,56.36
2023-04-20T06:40:39.233Z,55.13
2023-04-20T06:43:05.895Z,54.19
2023-04-20T06:45:33.999Z,52.74
2023-04-20T06:48:00.926Z,51.94
2023-04-20T06:50:29.076Z,51.38
2023-04-20T06:52:55.749Z,50.45
2023-04-20T06:55:22.408Z,49.67
2023-04-20T06:57:49.082Z,48.31
2023-04-20T07:00:17.010Z,47.06
2023-04-20T07:02:45.522Z,45.28
2023-04-20T07:05:12.287Z,45.72
2023-04-20T07:07:40.529Z,44.25
2023-04-20T07:10:07.992Z,43.88
2023-04-20T07:12:34.982Z,42.95
2023-04-20T07:15:02.340Z,42.48
2023-04-20T07:17:29.029Z,41.54
2023-04-20T07:19:55.753Z,41.43
2023-04-20T07:22:22.428Z,40.53
2023-04-20T07:24:50.741Z,40.62
2023-04-20T07:27:17.477Z,39.38
2023-04-20T07:29:44.106Z,39.99
2023-04-20T07:32:10.848Z,40.00
2023-04-20T07:34:37.572Z,40.51
2023-04-20T07:37:05.333Z,40.81
2023-04-20T07:39:32.000Z,40.67
2023-04-20T07:42:02.606Z,40.56
2023-04-20T07:44:29.218Z,40.12
2023-04-20T07:46:55.894Z,38.95
2023-04-20T07:49:22.561Z,39.48
2023-04-20T07:51:49.286Z,39.80
2023-04-20T07:54:16.002Z,38.86
2023-04-20T07:56:42.746Z,39.34
2023-04-20T07:59:10.738Z,39.31
2023-04-20T08:01:37.412Z,37.76
2023-04-20T08:04:04.403Z,37.33
2023-04-20T08:06:31.122Z,36.93
2023-04-20T08:08:57.727Z,36.67
2023-04-20T08:11:24.384Z,36.84
2023-04-20T08:13:51.030Z,36.04
2023-04-20T08:16:19.143Z,35.07
2023-04-20T08:18:45.964Z,35.25
2023-04-20T08:21:12.665Z,35.39
2023-04-20T08:23:39.302Z,35.24
2023-04-20T08:26:06.156Z,34.52
2023-04-20T08:28:34.218Z,35.09
2023-04-20T08:31:01.403Z,35.18
2023-04-20T08:33:29.542Z,34.67
2023-04-20T08:35:56.284Z,34.26
2023-04-20T08:38:32.936Z,33.71
2023-04-20T08:41:00.442Z,33.03
2023-04-20T08:43:27.159Z,33.26
2023-04-20T08:45:58.735Z,32.99
2023-04-20T08:48:26.002Z,32.33
2023-04-20T08:50:54.899Z,32.43
2023-04-20T08:53:21.661Z,32.64
2023-04-20T08:55:49.393Z,31.62
2023-04-20T08:58:17.144Z,31.64
2023-04-20T09:00:47.335Z,31.38
2023-04-20T09:03:14.310Z,30.61
2023-04-20T09:05:41.458Z,29.96
2023-04-20T09:08:09.525Z,30.29
2023-04-20T09:10:41.308Z,30.05
2023-04-20T09:13:08.131Z,29.96
2023-04-20T09:15:35.246Z,30.17
2023-04-20T09:18:11.871Z,29.09
2023-04-20T09:20:38.546Z,29.64
2023-04-20T09:23:13.125Z,30.49
2023-04-20T09:25:39.852Z,30.29
2023-04-20T09:28:07.069Z,29.13
2023-04-20T09:30:38.265Z,28.26
2023-04-20T09:33:05.822Z,28.26
2023-04-20T09:35:32.562Z,29.28
2023-04-20T09:37:59.319Z,29.29
2023-04-20T09:40:28.601Z,29.56
2023-04-20T09:42:58.389Z,29.78
2023-04-20T09:45:25.685Z,29.15
2023-04-20T09:47:53.779Z,28.45
2023-04-20T09:50:28.966Z,29.26
2023-04-20T09:53:00.591Z,29.45
2023-04-20T09:55:31.198Z,29.22
2023-04-20T09:57:58.482Z,29.71
2023-04-20T10:00:25.409Z,30.61
2023-04-20T10:02:52.392Z,30.75
2023-04-20T10:05:19.337Z,30.74
2023-04-20T10:07:46.205Z,30.04
2023-04-20T10:10:14.881Z,30.16
2023-04-20T10:12:50.685Z,30.26
2023-04-20T10:15:18.112Z,29.06
2023-04-20T10:17:45.303Z,29.18
2023-04-20T10:20:23.311Z,28.64
2023-04-20T10:22:51.898Z,27.98
2023-04-20T10:25:20.480Z,27.06
2023-04-20T10:27:56.453Z,26.60
2023-04-20T10:30:23.476Z,26.63
2023-04-20T10:32:50.736Z,27.34
2023-04-20T10:35:17.496Z,27.54
2023-04-20T10:37:51.337Z,27.45
2023-04-20T10:40:26.001Z,27.97
2023-04-20T10:42:52.743Z,28.04
2023-04-20T10:45:20.967Z,29.09
2023-04-20T10:47:47.775Z,27.70
2023-04-20T10:50:16.032Z,27.38
2023-04-20T10:52:44.104Z,27.80
2023-04-20T10:55:19.434Z,27.26
2023-04-20T10:57:46.116Z,27.64
2023-04-20T11:00:17.356Z,28.54
2023-04-20T11:02:52.831Z,28.21
2023-04-20T11:05:20.923Z,27.36
2023-04-20T11:07:51.456Z,26.90
2023-04-20T11:10:18.337Z,25.52
2023-04-20T11:12:45.038Z,25.59
2023-04-20T11:15:11.837Z,26.36
2023-04-20T11:17:38.773Z,27.72
2023-04-20T11:20:09.826Z,27.86
2023-04-20T11:22:36.847Z,28.68
2023-04-20T11:25:04.741Z,27.27
2023-04-20T11:27:31.501Z,27.38
2023-04-20T11:29:58.508Z,27.85
2023-04-20T11:32:26.150Z,28.44
2023-04-20T11:35:06.537Z,28.44
2023-04-20T11:37:46.377Z,26.74
2023-04-20T11:40:13.445Z,26.35
2023-04-20T11:42:40.124Z,26.60
2023-04-20T11:45:07.828Z,27.44
2023-04-20T11:47:34.554Z,26.79
2023-04-20T11:50:01.313Z,26.44
2023-04-20T11:52:28.036Z,26.18
2023-04-20T11:54:56.083Z,26.63
2023-04-20T11:57:22.881Z,26.11
2023-04-20T11:59:49.657Z,26.58
2023-04-20T12:02:16.468Z,26.19
2023-04-20T12:04:43.536Z,25.21
2023-04-20T12:07:10.563Z,25.77
2023-04-20T12:09:37.258Z,26.87
2023-04-20T12:12:06.042Z,26.63
2023-04-20T12:14:33.038Z,26.99
2023-04-20T12:16:59.804Z,27.58
2023-04-20T12:19:26.628Z,27.60
2023-04-20T12:21:53.285Z,28.86
2023-04-20T12:24:19.985Z,26.14
2023-04-20T12:26:46.645Z,26.38
2023-04-20T12:29:14.787Z,26.73
2023-04-20T12:31:41.517Z,26.56
2023-04-20T12:34:08.253Z,26.20
2023-04-20T12:36:35.094Z,25.77
2023-04-20T12:39:02.072Z,24.76
2023-04-20T12:41:28.763Z,24.05
2023-04-20T12:43:55.425Z,23.84
2023-04-20T12:46:23.565Z,23.72
2023-04-20T12:48:50.238Z,24.21
2023-04-20T12:51:16.894Z,23.92
2023-04-20T12:53:43.703Z,24.65
2023-04-20T12:56:10.460Z,24.15
2023-04-20T12:58:37.301Z,24.04
2023-04-20T13:01:04.058Z,24.39
2023-04-20T13:03:32.386Z,23.77
2023-04-20T13:05:59.331Z,23.28
2023-04-20T13:08:26.074Z,23.74
2023-04-20T13:10:52.722Z,24.34
2023-04-20T13:13:19.545Z,24.92
2023-04-20T13:15:46.232Z,24.08
2023-04-20T13:18:12.899Z,23.73
2023-04-20T13:20:41.392Z,24.57
2023-04-20T13:23:08.087Z,24.35
2023-04-20T13:25:34.812Z,24.27
2023-04-20T13:28:03.060Z,23.88
2023-04-20T13:30:29.787Z,24.10
2023-04-20T13:32:56.626Z,24.79
2023-04-20T13:35:24.178Z,24.08
2023-04-20T13:37:52.412Z,23.95
2023-04-20T13:40:19.058Z,23.96
2023-04-20T13:42:45.799Z,24.90
2023-04-20T13:45:12.792Z,24.22
2023-04-20T13:47:40.296Z,24.79
2023-04-20T13:50:08.622Z,24.68
2023-04-20T13:52:35.503Z,24.94
2023-04-20T13:55:03.713Z,25.61
2023-04-20T13:57:30.449Z,25.44
2023-04-20T13:59:57.352Z,25.46
2023-04-20T14:02:24.198Z,25.28
2023-04-20T14:04:51.169Z,25.49
2023-04-20T14:07:17.865Z,24.11
2023-04-20T14:09:44.679Z,24.67
2023-04-20T14:12:13.279Z,24.92
2023-04-20T14:14:40.147Z,23.90
2023-04-20T14:17:06.776Z,23.68
2023-04-20T14:19:33.511Z,25.11
2023-04-20T14:22:00.264Z,24.95
2023-04-20T14:24:26.974Z,25.24
2023-04-20T14:26:53.677Z,25.35
2023-04-20T14:29:21.731Z,25.90
2023-04-20T14:31:48.647Z,24.75
2023-04-20T14:34:15.634Z,24.20
2023-04-20T14:36:42.421Z,25.63
2023-04-20T14:39:09.112Z,25.52
2023-04-20T14:41:36.048Z,25.30
2023-04-20T14:44:02.715Z,25.42
2023-04-20T14:46:30.827Z,25.43
2023-04-20T14:48:57.571Z,25.39
2023-04-20T14:51:24.267Z,25.36
2023-04-20T14:53:51.045Z,25.09
2023-04-20T14:56:17.778Z,25.49
2023-04-20T14:58:44.534Z,25.33
2023-04-20T15:01:11.215Z,25.08
2023-04-20T15:03:39.539Z,24.03
2023-04-20T15:06:07.229Z,24.26
2023-04-20T15:08:33.890Z,25.38
2023-04-20T15:11:00.590Z,26.24
2023-04-20T15:13:27.332Z,25.42
2023-04-20T15:15:55.259Z,25.01
2023-04-20T15:18:22.364Z,24.96
2023-04-20T15:20:54.943Z,25.07
2023-04-20T15:23:21.958Z,25.36
2023-04-20T15:25:48.731Z,25.32
2023-04-20T15:28:15.580Z,25.29
2023-04-20T15:30:42.585Z,25.30
2023-04-20T15:33:09.423Z,25.35
2023-04-20T15:35:36.247Z,25.75
2023-04-20T15:38:04.477Z,25.83
2023-04-20T15:40:31.164Z,25.62
2023-04-20T15:42:57.848Z,26.07
2023-04-20T15:45:24.672Z,26.27
2023-04-20T15:47:51.621Z,25.83
2023-04-20T15:50:18.873Z,26.19
2023-04-20T15:52:45.717Z,26.19
2023-04-20T15:55:13.850Z,25.93
2023-04-20T15:57:41.319Z,26.91
2023-04-20T16:00:10.484Z,26.78
2023-04-20T16:02:37.727Z,26.38
2023-04-20T16:05:05.197Z,26.10
2023-04-20T16:07:31.899Z,25.93
2023-04-20T16:09:58.876Z,26.92
2023-04-20T16:12:27.180Z,25.59
2023-04-20T16:14:53.991Z,25.68
2023-04-20T16:17:20.899Z,25.44
2023-04-20T16:19:47.624Z,23.67
2023-04-20T16:22:14.350Z,23.60
2023-04-20T16:24:41.098Z,24.42
2023-04-20T16:27:07.835Z,24.59
2023-04-20T16:29:35.938Z,24.43
2023-04-20T16:32:02.688Z,24.24
2023-04-20T16:34:29.332Z,23.12
2023-04-20T16:36:56.034Z,22.93
2023-04-20T16:39:22.826Z,23.33
2023-04-20T16:41:49.510Z,22.79
2023-04-20T16:44:16.699Z,23.23
2023-04-20T16:46:47.724Z,23.01
2023-04-20T16:49:14.415Z,23.43
2023-04-20T16:51:41.075Z,23.92
2023-04-20T16:54:07.749Z,23.76
2023-04-20T16:56:34.512Z,24.04
2023-04-20T16:59:01.142Z,24.25
2023-04-20T17:01:27.966Z,24.20
2023-04-20T17:03:56.094Z,24.66
2023-04-20T17:06:22.804Z,24.67
2023-04-20T17:08:49.494Z,25.39
2023-04-20T17:11:16.148Z,25.59
2023-04-20T17:13:42.869Z,25.42
2023-04-20T17:16:09.669Z,25.46
2023-04-20T17:18:36.409Z,25.87
2023-04-20T17:21:04.917Z,26.29
2023-04-20T17:23:33.428Z,26.90
2023-04-20T17:26:00.141Z,25.84
2023-04-20T17:28:26.836Z,25.89
2023-04-20T17:30:53.609Z,26.41
2023-04-20T17:33:20.303Z,25.59
2023-04-20T17:35:46.961Z,26.08
2023-04-20T17:38:15.079Z,25.92
2023-04-20T17:40:41.730Z,26.71
2023-04-20T17:43:08.439Z,26.71
2023-04-20T17:45:36.682Z,27.17
2023-04-20T17:48:03.662Z,27.18
2023-04-20T17:50:30.417Z,27.13
2023-04-20T17:52:57.161Z,27.60
2023-04-20T17:55:25.449Z,27.82
2023-04-20T17:57:52.114Z,28.36
2023-04-20T18:00:19.086Z,28.35
2023-04-20T18:02:45.925Z,28.48
2023-04-20T18:05:12.713Z,28.21
2023-04-20T18:07:39.404Z,28.12
2023-04-20T18:10:07.245Z,27.76
2023-04-20T18:12:35.404Z,27.54
2023-04-20T18:15:02.150Z,28.01
2023-04-20T18:17:28.870Z,27.39
2023-04-20T18:19:55.617Z,27.35
2023-04-20T18:22:22.306Z,27.24
2023-04-20T18:24:49.051Z,27.27
2023-04-20T18:27:15.710Z,27.11
2023-04-20T18:29:43.749Z,26.94
2023-04-20T18:32:10.552Z,27.53
2023-04-20T18:34:37.216Z,27.25
2023-04-20T18:37:03.933Z,27.41
2023-04-20T18:39:30.623Z,27.70
2023-04-20T18:41:57.294Z,27.89
2023-04-20T18:44:24.009Z,28.04
2023-04-20T18:46:52.256Z,28.17
2023-04-20T18:49:18.997Z,28.23
2023-04-20T18:51:45.633Z,28.50
2023-04-20T18:54:12.522Z,28.36
2023-04-20T18:56:39.367Z,28.67
2023-04-20T18:59:06.160Z,28.95
2023-04-20T19:01:33.170Z,29.36
2023-04-20T19:04:01.533Z,29.62
2023-04-20T19:06:28.447Z,30.10
2023-04-20T19:08:55.136Z,30.43
2023-04-20T19:11:21.808Z,30.60
2023-04-20T19:13:48.493Z,31.08
2023-04-20T19:16:15.310Z,31.26
2023-04-20T19:18:41.986Z,30.89
2023-04-20T19:21:10.797Z,31.36
2023-04-20T19:23:37.512Z,31.49
2023-04-20T19:26:04.237Z,32.25
2023-04-20T19:28:30.983Z,32.39
2023-04-20T19:30:58.862Z,32.95
2023-04-20T19:33:25.669Z,33.50
2023-04-20T19:35:52.423Z,34.24
2023-04-20T19:38:21.652Z,34.37
2023-04-20T19:40:48.730Z,34.79
2023-04-20T19:43:15.447Z,35.51
2023-04-20T19:45:42.197Z,36.48
2023-04-20T19:48:09.010Z,37.07
2023-04-20T19:50:35.794Z,37.04
2023-04-20T19:53:02.496Z,37.16
2023-04-20T19:55:30.581Z,37.42
2023-04-20T19:57:57.307Z,37.71
2023-04-20T20:00:24.203Z,37.80
2023-04-20T20:02:51.074Z,37.65
2023-04-20T20:05:17.979Z,37.78
2023-04-20T20:07:44.667Z,37.92
2023-04-20T20:10:11.403Z,38.04
2023-04-20T20:12:39.477Z,37.85
2023-04-20T20:15:06.736Z,37.40
2023-04-20T20:17:33.410Z,38.04
2023-04-20T20:20:00.296Z,39.12
2023-04-20T20:22:27.059Z,39.37
2023-04-20T20:24:53.717Z,39.63
2023-04-20T20:27:20.597Z,39.82
2023-04-20T20:29:48.797Z,40.43
2023-04-20T20:32:15.545Z,42.49
2023-04-20T20:34:42.272Z,43.90
2023-04-20T20:37:09.124Z,45.18
2023-04-20T20:39:35.921Z,47.30
2023-04-20T20:42:02.703Z,47.93
2023-04-20T20:44:29.686Z,49.00
2023-04-20T20:46:57.776Z,51.90
2023-04-20T20:49:24.630Z,52.82
2023-04-20T20:51:51.426Z,54.05
2023-04-20T20:54:18.208Z,56.06
2023-04-20T20:56:44.971Z,57.82
2023-04-20T20:59:11.637Z,60.77
2023-04-20T21:01:38.414Z,61.63
2023-04-20T21:04:06.826Z,61.15
2023-04-20T21:06:33.575Z,62.00
2023-04-20T21:09:00.427Z,64.05
2023-04-20T21:11:27.074Z,63.01
2023-04-20T21:13:53.700Z,66.32
2023-04-20T21:16:20.423Z,71.28
2023-04-20T21:18:47.084Z,74.72
2023-04-20T21:21:15.211Z,75.63
2023-04-20T21:23:41.908Z,75.32
2023-04-20T21:26:08.597Z,75.51
2023-04-20T21:28:35.325Z,75.79
2023-04-20T21:31:02.032Z,76.76
2023-04-20T21:33:28.793Z,78.21
2023-04-20T21:35:57.660Z,77.71
2023-04-20T21:38:27.017Z,77.11
2023-04-20T21:40:53.626Z,78.00
2023-04-20T21:43:20.327Z,78.24
2023-04-20T21:45:47.094Z,80.66
2023-04-20T21:48:13.752Z,79.82
2023-04-20T21:50:40.513Z,82.27
2023-04-20T21:53:07.242Z,81.07
2023-04-20T21:55:35.349Z,80.63
2023-04-20T21:58:02.013Z,81.05
2023-04-20T22:00:28.692Z,80.54
2023-04-20T22:02:55.556Z,80.67
2023-04-20T22:05:22.696Z,81.12
2023-04-20T22:07:49.361Z,80.49
2023-04-20T22:10:16.017Z,80.38
2023-04-20T22:12:44.127Z,81.65
2023-04-20T22:15:13.591Z,81.14
2023-04-20T22:17:40.803Z,83.22
2023-04-20T22:20:10.180Z,84.04
2023-04-20T22:22:37.975Z,84.38
2023-04-20T22:25:06.570Z,84.03
2023-04-20T22:27:34.549Z,84.10
2023-04-20T22:30:02.821Z,83.75
2023-04-20T22:32:29.582Z,83.82
2023-04-20T22:34:56.291Z,83.58
2023-04-20T22:37:22.941Z,83.39
2023-04-20T22:39:49.591Z,84.42
2023-04-20T22:42:16.286Z,87.73
2023-04-20T22:44:42.901Z,87.46
2023-04-20T22:47:11.033Z,87.85
2023-04-20T22:49:37.772Z,86.42
2023-04-20T22:52:04.619Z,84.97
2023-04-20T22:54:31.366Z,85.03
2023-04-20T22:56:58.039Z,85.25
2023-04-20T22:59:24.731Z,85.81
2023-04-20T23:01:51.421Z,85.54
2023-04-20T23:04:19.591Z,85.80
2023-04-20T23:06:46.295Z,85.69
2023-04-20T23:09:13.067Z,87.08
2023-04-20T23:11:39.957Z,87.91
2023-04-20T23:14:06.962Z,87.20
2023-04-20T23:16:33.827Z,86.89
2023-04-20T23:19:01.223Z,87.17
2023-04-20T23:21:29.312Z,87.64
2023-04-20T23:23:56.015Z,86.84
2023-04-20T23:26:22.965Z,87.92
2023-04-20T23:28:50.838Z,86.93
2023-04-20T23:31:17.610Z,86.72
2023-04-20T23:33:44.360Z,85.95
2023-04-20T23:36:11.039Z,87.14
2023-04-20T23:38:39.318Z,86.45
2023-04-20T23:41:08.718Z,86.36
2023-04-20T23:43:35.466Z,86.50
2023-04-20T23:46:02.149Z,86.14
2023-04-20T23:48:28.908Z,86.84
2023-04-20T23:50:55.645Z,86.39
2023-04-20T23:53:22.540Z,86.91
2023-04-20T23:55:50.695Z,87.16
2023-04-20T23:58:17.336Z,86.17
